sensor_id;sensor_type;location;lat;lon;timestamp;pressure;altitude;pressure_sealevel;temperature
69435;BMP180;56625;54.322;18.582;2022-08-01T00:01:29;100569.80;;;13.80
69435;BMP180;56625;54.322;18.582;2022-08-01T00:04:00;100570.20;;;13.80
69435;BMP180;56625;54.322;18.582;2022-08-01T00:06:29;100573.40;;;13.80
69435;BMP180;56625;54.322;18.582;2022-08-01T00:08:57;100573.20;;;13.80
69435;BMP180;56625;54.322;18.582;2022-08-01T00:11:25;100568.20;;;13.80
69435;BMP180;56625;54.322;18.582;2022-08-01T00:13:53;100570.60;;;13.80
69435;BMP180;56625;54.322;18.582;2022-08-01T00:16:21;100572.20;;;13.70
69435;BMP180;56625;54.322;18.582;2022-08-01T00:18:51;100570.40;;;13.60
69435;BMP180;56625;54.322;18.582;2022-08-01T00:21:19;100568.40;;;13.60
69435;BMP180;56625;54.322;18.582;2022-08-01T00:23:47;100569.00;;;13.50
69435;BMP180;56625;54.322;18.582;2022-08-01T00:26:15;100565.60;;;13.50
69435;BMP180;56625;54.322;18.582;2022-08-01T00:28:42;100562.40;;;13.50
69435;BMP180;56625;54.322;18.582;2022-08-01T00:31:10;100561.80;;;13.40
69435;BMP180;56625;54.322;18.582;2022-08-01T00:33:38;100559.20;;;13.40
69435;BMP180;56625;54.322;18.582;2022-08-01T00:36:06;100555.20;;;13.38
69435;BMP180;56625;54.322;18.582;2022-08-01T00:38:34;100554.80;;;13.30
69435;BMP180;56625;54.322;18.582;2022-08-01T00:41:02;100548.60;;;13.30
69435;BMP180;56625;54.322;18.582;2022-08-01T00:43:30;100547.00;;;13.38
69435;BMP180;56625;54.322;18.582;2022-08-01T00:45:58;100544.40;;;13.40
69435;BMP180;56625;54.322;18.582;2022-08-01T00:48:26;100542.20;;;13.40
69435;BMP180;56625;54.322;18.582;2022-08-01T00:50:53;100540.20;;;13.42
69435;BMP180;56625;54.322;18.582;2022-08-01T00:53:22;100543.80;;;13.40
69435;BMP180;56625;54.322;18.582;2022-08-01T00:55:53;100545.60;;;13.40
69435;BMP180;56625;54.322;18.582;2022-08-01T00:58:22;100541.20;;;13.40
69435;BMP180;56625;54.322;18.582;2022-08-01T01:00:50;100538.00;;;13.50
69435;BMP180;56625;54.322;18.582;2022-08-01T01:03:23;100537.40;;;13.50
69435;BMP180;56625;54.322;18.582;2022-08-01T01:09:28;100533.80;;;13.44
69435;BMP180;56625;54.322;18.582;2022-08-01T01:12:12;100539.60;;;13.50
69435;BMP180;56625;54.322;18.582;2022-08-01T01:15:08;100538.20;;;13.48
69435;BMP180;56625;54.322;18.582;2022-08-01T01:17:51;100535.60;;;13.44
69435;BMP180;56625;54.322;18.582;2022-08-01T01:20:24;100532.40;;;13.48
69435;BMP180;56625;54.322;18.582;2022-08-01T01:23:54;100537.00;;;13.42
69435;BMP180;56625;54.322;18.582;2022-08-01T01:28:06;100540.00;;;13.50
69435;BMP180;56625;54.322;18.582;2022-08-01T01:30:07;100530.40;;;13.48
69435;BMP180;56625;54.322;18.582;2022-08-01T01:32:42;100533.40;;;13.40
69435;BMP180;56625;54.322;18.582;2022-08-01T01:35:20;100535.20;;;13.40
69435;BMP180;56625;54.322;18.582;2022-08-01T01:37:54;100529.60;;;13.40
69435;BMP180;56625;54.322;18.582;2022-08-01T01:40:25;100533.20;;;13.40
69435;BMP180;56625;54.322;18.582;2022-08-01T01:42:56;100530.40;;;13.30
69435;BMP180;56625;54.322;18.582;2022-08-01T01:45:26;100530.00;;;13.30
69435;BMP180;56625;54.322;18.582;2022-08-01T01:47:56;100528.60;;;13.30
69435;BMP180;56625;54.322;18.582;2022-08-01T01:50:25;100529.00;;;13.22
69435;BMP180;56625;54.322;18.582;2022-08-01T01:52:55;100528.40;;;13.20
69435;BMP180;56625;54.322;18.582;2022-08-01T01:55:25;100525.80;;;13.20
69435;BMP180;56625;54.322;18.582;2022-08-01T01:57:56;100524.80;;;13.10
69435;BMP180;56625;54.322;18.582;2022-08-01T02:00:26;100524.20;;;13.10
69435;BMP180;56625;54.322;18.582;2022-08-01T02:02:55;100520.60;;;13.06
69435;BMP180;56625;54.322;18.582;2022-08-01T02:05:25;100521.20;;;13.00
69435;BMP180;56625;54.322;18.582;2022-08-01T02:07:56;100522.40;;;13.04
69435;BMP180;56625;54.322;18.582;2022-08-01T02:10:27;100518.00;;;13.10
69435;BMP180;56625;54.322;18.582;2022-08-01T02:12:58;100516.40;;;13.10
69435;BMP180;56625;54.322;18.582;2022-08-01T02:15:29;100522.20;;;13.10
69435;BMP180;56625;54.322;18.582;2022-08-01T02:18:00;100523.20;;;13.10
69435;BMP180;56625;54.322;18.582;2022-08-01T02:20:30;100523.20;;;13.16
69435;BMP180;56625;54.322;18.582;2022-08-01T02:23:10;100524.60;;;13.20
69435;BMP180;56625;54.322;18.582;2022-08-01T02:25:48;100523.80;;;13.20
69435;BMP180;56625;54.322;18.582;2022-08-01T02:28:57;100523.20;;;13.20
69435;BMP180;56625;54.322;18.582;2022-08-01T02:31:31;100522.60;;;13.18
69435;BMP180;56625;54.322;18.582;2022-08-01T02:34:06;100524.40;;;13.10
69435;BMP180;56625;54.322;18.582;2022-08-01T02:36:38;100523.00;;;13.10
69435;BMP180;56625;54.322;18.582;2022-08-01T02:39:13;100521.40;;;13.10
69435;BMP180;56625;54.322;18.582;2022-08-01T02:41:47;100520.80;;;13.10
69435;BMP180;56625;54.322;18.582;2022-08-01T02:44:26;100524.00;;;13.10
69435;BMP180;56625;54.322;18.582;2022-08-01T02:47:00;100523.20;;;13.10
69435;BMP180;56625;54.322;18.582;2022-08-01T02:49:45;100527.20;;;13.10
69435;BMP180;56625;54.322;18.582;2022-08-01T02:52:23;100522.00;;;13.10
69435;BMP180;56625;54.322;18.582;2022-08-01T02:54:55;100518.20;;;13.20
69435;BMP180;56625;54.322;18.582;2022-08-01T02:57:26;100516.00;;;13.20
69435;BMP180;56625;54.322;18.582;2022-08-01T03:00:16;100513.80;;;13.30
69435;BMP180;56625;54.322;18.582;2022-08-01T03:02:46;100515.20;;;13.38
69435;BMP180;56625;54.322;18.582;2022-08-01T03:05:17;100516.80;;;13.40
69435;BMP180;56625;54.322;18.582;2022-08-01T03:07:46;100514.40;;;13.40
69435;BMP180;56625;54.322;18.582;2022-08-01T03:10:16;100515.20;;;13.50
69435;BMP180;56625;54.322;18.582;2022-08-01T03:12:47;100514.20;;;13.50
69435;BMP180;56625;54.322;18.582;2022-08-01T03:15:17;100515.80;;;13.60
69435;BMP180;56625;54.322;18.582;2022-08-01T03:17:49;100517.60;;;13.60
69435;BMP180;56625;54.322;18.582;2022-08-01T03:20:21;100515.00;;;13.64
69435;BMP180;56625;54.322;18.582;2022-08-01T03:22:53;100512.00;;;13.60
69435;BMP180;56625;54.322;18.582;2022-08-01T03:25:24;100507.20;;;13.60
69435;BMP180;56625;54.322;18.582;2022-08-01T03:27:59;100509.40;;;13.64
69435;BMP180;56625;54.322;18.582;2022-08-01T03:30:29;100507.00;;;13.70
69435;BMP180;56625;54.322;18.582;2022-08-01T03:32:59;100505.40;;;13.70
69435;BMP180;56625;54.322;18.582;2022-08-01T03:35:33;100502.00;;;13.70
69435;BMP180;56625;54.322;18.582;2022-08-01T03:38:08;100507.00;;;13.80
69435;BMP180;56625;54.322;18.582;2022-08-01T03:41:09;100508.60;;;13.80
69435;BMP180;56625;54.322;18.582;2022-08-01T03:43:46;100511.60;;;14.00
69435;BMP180;56625;54.322;18.582;2022-08-01T03:46:32;100511.60;;;14.20
69435;BMP180;56625;54.322;18.582;2022-08-01T03:49:11;100515.00;;;14.56
69435;BMP180;56625;54.322;18.582;2022-08-01T03:51:41;100514.40;;;14.90
69435;BMP180;56625;54.322;18.582;2022-08-01T03:54:10;100515.80;;;15.30
69435;BMP180;56625;54.322;18.582;2022-08-01T03:56:41;100514.60;;;15.78
69435;BMP180;56625;54.322;18.582;2022-08-01T03:59:10;100508.80;;;16.20
69435;BMP180;56625;54.322;18.582;2022-08-01T04:01:39;100510.40;;;16.58
69435;BMP180;56625;54.322;18.582;2022-08-01T04:04:07;100506.00;;;16.88
69435;BMP180;56625;54.322;18.582;2022-08-01T04:06:38;100506.20;;;17.10
69435;BMP180;56625;54.322;18.582;2022-08-01T04:09:07;100496.60;;;17.40
69435;BMP180;56625;54.322;18.582;2022-08-01T04:11:40;100498.40;;;17.66
69435;BMP180;56625;54.322;18.582;2022-08-01T04:14:11;100493.20;;;17.90
69435;BMP180;56625;54.322;18.582;2022-08-01T04:16:39;100491.20;;;18.06
69435;BMP180;56625;54.322;18.582;2022-08-01T04:19:07;100490.80;;;18.10
69435;BMP180;56625;54.322;18.582;2022-08-01T04:21:37;100491.00;;;18.02
69435;BMP180;56625;54.322;18.582;2022-08-01T04:24:18;100489.40;;;18.10
69435;BMP180;56625;54.322;18.582;2022-08-01T04:26:50;100491.60;;;18.20
69435;BMP180;56625;54.322;18.582;2022-08-01T04:29:21;100492.60;;;18.20
69435;BMP180;56625;54.322;18.582;2022-08-01T04:31:52;100494.60;;;18.28
69435;BMP180;56625;54.322;18.582;2022-08-01T04:34:25;100490.00;;;18.20
69435;BMP180;56625;54.322;18.582;2022-08-01T04:36:55;100498.40;;;18.10
69435;BMP180;56625;54.322;18.582;2022-08-01T04:39:26;100497.00;;;17.86
69435;BMP180;56625;54.322;18.582;2022-08-01T04:41:58;100499.80;;;17.70
69435;BMP180;56625;54.322;18.582;2022-08-01T04:44:27;100501.00;;;17.70
69435;BMP180;56625;54.322;18.582;2022-08-01T04:47:01;100509.80;;;17.62
69435;BMP180;56625;54.322;18.582;2022-08-01T04:49:32;100507.00;;;17.50
69435;BMP180;56625;54.322;18.582;2022-08-01T04:52:15;100507.60;;;17.30
69435;BMP180;56625;54.322;18.582;2022-08-01T04:54:51;100506.60;;;17.22
69435;BMP180;56625;54.322;18.582;2022-08-01T04:57:19;100509.00;;;17.20
69435;BMP180;56625;54.322;18.582;2022-08-01T04:59:46;100511.80;;;17.12
69435;BMP180;56625;54.322;18.582;2022-08-01T05:02:18;100514.00;;;17.10
69435;BMP180;56625;54.322;18.582;2022-08-01T05:04:46;100509.00;;;17.10
69435;BMP180;56625;54.322;18.582;2022-08-01T05:07:15;100510.00;;;17.10
69435;BMP180;56625;54.322;18.582;2022-08-01T05:09:43;100510.60;;;17.10
69435;BMP180;56625;54.322;18.582;2022-08-01T05:12:13;100516.60;;;17.20
69435;BMP180;56625;54.322;18.582;2022-08-01T05:14:41;100521.80;;;17.30
69435;BMP180;56625;54.322;18.582;2022-08-01T05:17:10;100523.20;;;17.30
69435;BMP180;56625;54.322;18.582;2022-08-01T05:19:39;100520.20;;;17.20
69435;BMP180;56625;54.322;18.582;2022-08-01T05:22:09;100515.60;;;17.26
69435;BMP180;56625;54.322;18.582;2022-08-01T05:24:39;100520.40;;;17.30
69435;BMP180;56625;54.322;18.582;2022-08-01T05:27:09;100520.80;;;17.30
69435;BMP180;56625;54.322;18.582;2022-08-01T05:29:42;100519.40;;;17.40
69435;BMP180;56625;54.322;18.582;2022-08-01T05:32:11;100526.20;;;17.50
69435;BMP180;56625;54.322;18.582;2022-08-01T05:34:39;100524.80;;;17.50
69435;BMP180;56625;54.322;18.582;2022-08-01T05:37:08;100522.00;;;17.56
69435;BMP180;56625;54.322;18.582;2022-08-01T05:39:46;100522.00;;;17.60
69435;BMP180;56625;54.322;18.582;2022-08-01T05:42:16;100517.20;;;17.78
69435;BMP180;56625;54.322;18.582;2022-08-01T05:44:46;100515.80;;;17.94
69435;BMP180;56625;54.322;18.582;2022-08-01T05:47:15;100507.00;;;18.10
69435;BMP180;56625;54.322;18.582;2022-08-01T05:49:45;100507.00;;;18.10
69435;BMP180;56625;54.322;18.582;2022-08-01T05:52:15;100506.20;;;18.10
69435;BMP180;56625;54.322;18.582;2022-08-01T05:54:43;100506.20;;;18.10
69435;BMP180;56625;54.322;18.582;2022-08-01T05:57:11;100507.20;;;18.20
69435;BMP180;56625;54.322;18.582;2022-08-01T05:59:41;100505.40;;;18.30
69435;BMP180;56625;54.322;18.582;2022-08-01T06:02:09;100502.00;;;18.30
69435;BMP180;56625;54.322;18.582;2022-08-01T06:04:43;100500.00;;;18.20
69435;BMP180;56625;54.322;18.582;2022-08-01T06:07:11;100502.00;;;18.20
69435;BMP180;56625;54.322;18.582;2022-08-01T06:09:39;100502.20;;;18.20
69435;BMP180;56625;54.322;18.582;2022-08-01T06:12:06;100504.40;;;18.30
69435;BMP180;56625;54.322;18.582;2022-08-01T06:14:35;100505.80;;;18.42
69435;BMP180;56625;54.322;18.582;2022-08-01T06:17:03;100505.00;;;18.60
69435;BMP180;56625;54.322;18.582;2022-08-01T06:19:31;100504.80;;;18.70
69435;BMP180;56625;54.322;18.582;2022-08-01T06:21:58;100499.00;;;18.94
69435;BMP180;56625;54.322;18.582;2022-08-01T06:24:26;100498.40;;;19.18
69435;BMP180;56625;54.322;18.582;2022-08-01T06:26:54;100502.60;;;19.30
69435;BMP180;56625;54.322;18.582;2022-08-01T06:29:22;100501.80;;;19.40
69435;BMP180;56625;54.322;18.582;2022-08-01T06:31:50;100497.40;;;19.48
69435;BMP180;56625;54.322;18.582;2022-08-01T06:34:20;100497.40;;;19.58
69435;BMP180;56625;54.322;18.582;2022-08-01T06:36:49;100494.80;;;19.70
69435;BMP180;56625;54.322;18.582;2022-08-01T06:39:17;100490.80;;;19.76
69435;BMP180;56625;54.322;18.582;2022-08-01T06:41:48;100491.00;;;19.80
69435;BMP180;56625;54.322;18.582;2022-08-01T06:44:23;100492.80;;;19.80
69435;BMP180;56625;54.322;18.582;2022-08-01T06:46:53;100485.40;;;19.92
69435;BMP180;56625;54.322;18.582;2022-08-01T06:49:21;100486.80;;;20.20
69435;BMP180;56625;54.322;18.582;2022-08-01T06:51:49;100483.00;;;20.30
69435;BMP180;56625;54.322;18.582;2022-08-01T06:54:16;100488.80;;;20.30
69435;BMP180;56625;54.322;18.582;2022-08-01T06:56:44;100487.80;;;20.28
69435;BMP180;56625;54.322;18.582;2022-08-01T06:59:15;100485.60;;;20.36
69435;BMP180;56625;54.322;18.582;2022-08-01T07:01:52;100492.40;;;20.40
69435;BMP180;56625;54.322;18.582;2022-08-01T07:05:09;100493.60;;;20.70
69435;BMP180;56625;54.322;18.582;2022-08-01T07:07:53;100487.40;;;21.00
69435;BMP180;56625;54.322;18.582;2022-08-01T07:11:15;100490.40;;;21.22
69435;BMP180;56625;54.322;18.582;2022-08-01T07:14:05;100490.20;;;21.40
69435;BMP180;56625;54.322;18.582;2022-08-01T07:16:39;100482.20;;;21.60
69435;BMP180;56625;54.322;18.582;2022-08-01T07:19:11;100487.20;;;21.78
69435;BMP180;56625;54.322;18.582;2022-08-01T07:21:49;100487.80;;;22.00
69435;BMP180;56625;54.322;18.582;2022-08-01T07:24:24;100485.60;;;22.10
69435;BMP180;56625;54.322;18.582;2022-08-01T07:26:55;100485.60;;;22.20
69435;BMP180;56625;54.322;18.582;2022-08-01T07:29:47;100480.40;;;22.20
69435;BMP180;56625;54.322;18.582;2022-08-01T07:32:16;100485.20;;;22.14
69435;BMP180;56625;54.322;18.582;2022-08-01T07:34:44;100484.20;;;22.20
69435;BMP180;56625;54.322;18.582;2022-08-01T07:37:12;100480.80;;;22.38
69435;BMP180;56625;54.322;18.582;2022-08-01T07:39:40;100480.60;;;22.72
69435;BMP180;56625;54.322;18.582;2022-08-01T07:42:08;100481.80;;;23.10
69435;BMP180;56625;54.322;18.582;2022-08-01T07:44:37;100482.80;;;23.40
69435;BMP180;56625;54.322;18.582;2022-08-01T07:47:05;100480.60;;;23.58
69435;BMP180;56625;54.322;18.582;2022-08-01T07:49:34;100476.80;;;23.56
69435;BMP180;56625;54.322;18.582;2022-08-01T07:52:08;100476.60;;;23.70
69435;BMP180;56625;54.322;18.582;2022-08-01T07:54:36;100475.00;;;23.80
69435;BMP180;56625;54.322;18.582;2022-08-01T07:57:04;100474.40;;;23.70
69435;BMP180;56625;54.322;18.582;2022-08-01T07:59:32;100473.20;;;23.56
69435;BMP180;56625;54.322;18.582;2022-08-01T08:02:01;100481.00;;;23.22
69435;BMP180;56625;54.322;18.582;2022-08-01T08:04:29;100482.60;;;23.00
69435;BMP180;56625;54.322;18.582;2022-08-01T08:06:57;100479.40;;;22.90
69435;BMP180;56625;54.322;18.582;2022-08-01T08:09:24;100480.60;;;23.02
69435;BMP180;56625;54.322;18.582;2022-08-01T08:11:52;100481.00;;;23.30
69435;BMP180;56625;54.322;18.582;2022-08-01T08:14:20;100475.60;;;23.62
69435;BMP180;56625;54.322;18.582;2022-08-01T08:16:59;100475.40;;;23.90
69435;BMP180;56625;54.322;18.582;2022-08-01T08:19:29;100477.40;;;24.16
69435;BMP180;56625;54.322;18.582;2022-08-01T08:22:07;100480.20;;;24.30
69435;BMP180;56625;54.322;18.582;2022-08-01T08:24:37;100481.40;;;24.56
69435;BMP180;56625;54.322;18.582;2022-08-01T08:27:14;100482.60;;;24.84
69435;BMP180;56625;54.322;18.582;2022-08-01T08:29:42;100484.20;;;24.82
69435;BMP180;56625;54.322;18.582;2022-08-01T08:32:11;100479.60;;;24.56
69435;BMP180;56625;54.322;18.582;2022-08-01T08:34:39;100482.80;;;24.22
69435;BMP180;56625;54.322;18.582;2022-08-01T08:37:08;100480.60;;;24.00
69435;BMP180;56625;54.322;18.582;2022-08-01T08:39:36;100489.00;;;23.80
69435;BMP180;56625;54.322;18.582;2022-08-01T08:42:11;100491.80;;;23.60
69435;BMP180;56625;54.322;18.582;2022-08-01T08:44:42;100491.40;;;23.60
69435;BMP180;56625;54.322;18.582;2022-08-01T08:47:13;100493.00;;;24.08
69435;BMP180;56625;54.322;18.582;2022-08-01T08:49:50;100492.60;;;24.20
69435;BMP180;56625;54.322;18.582;2022-08-01T08:52:20;100490.00;;;24.20
69435;BMP180;56625;54.322;18.582;2022-08-01T08:54:50;100488.60;;;24.38
69435;BMP180;56625;54.322;18.582;2022-08-01T08:57:20;100488.00;;;24.56
69435;BMP180;56625;54.322;18.582;2022-08-01T08:59:49;100485.60;;;24.60
69435;BMP180;56625;54.322;18.582;2022-08-01T09:02:22;100486.20;;;24.84
69435;BMP180;56625;54.322;18.582;2022-08-01T09:04:51;100494.00;;;25.10
69435;BMP180;56625;54.322;18.582;2022-08-01T09:07:18;100490.40;;;25.20
69435;BMP180;56625;54.322;18.582;2022-08-01T09:09:47;100493.20;;;25.44
69435;BMP180;56625;54.322;18.582;2022-08-01T09:12:19;100490.20;;;25.60
69435;BMP180;56625;54.322;18.582;2022-08-01T09:14:48;100490.40;;;25.70
69435;BMP180;56625;54.322;18.582;2022-08-01T09:17:18;100494.60;;;26.00
69435;BMP180;56625;54.322;18.582;2022-08-01T09:19:55;100495.80;;;26.14
69435;BMP180;56625;54.322;18.582;2022-08-01T09:22:33;100496.60;;;26.10
69435;BMP180;56625;54.322;18.582;2022-08-01T09:25:09;100497.00;;;26.10
69435;BMP180;56625;54.322;18.582;2022-08-01T09:27:43;100504.60;;;25.82
69435;BMP180;56625;54.322;18.582;2022-08-01T09:30:20;100509.60;;;25.60
69435;BMP180;56625;54.322;18.582;2022-08-01T09:33:00;100509.20;;;25.50
69435;BMP180;56625;54.322;18.582;2022-08-01T09:35:55;100508.40;;;25.50
69435;BMP180;56625;54.322;18.582;2022-08-01T09:38:25;100506.00;;;25.60
69435;BMP180;56625;54.322;18.582;2022-08-01T09:41:00;100505.20;;;25.62
69435;BMP180;56625;54.322;18.582;2022-08-01T09:43:31;100504.00;;;25.70
69435;BMP180;56625;54.322;18.582;2022-08-01T09:46:08;100502.40;;;25.70
69435;BMP180;56625;54.322;18.582;2022-08-01T09:49:06;100502.00;;;25.70
69435;BMP180;56625;54.322;18.582;2022-08-01T09:51:39;100503.00;;;25.88
69435;BMP180;56625;54.322;18.582;2022-08-01T09:54:33;100501.40;;;25.90
69435;BMP180;56625;54.322;18.582;2022-08-01T09:57:18;100504.80;;;25.90
69435;BMP180;56625;54.322;18.582;2022-08-01T09:59:50;100508.60;;;26.20
69435;BMP180;56625;54.322;18.582;2022-08-01T10:02:34;100508.60;;;26.30
69435;BMP180;56625;54.322;18.582;2022-08-01T10:05:09;100515.00;;;26.10
69435;BMP180;56625;54.322;18.582;2022-08-01T10:08:04;100517.00;;;26.00
69435;BMP180;56625;54.322;18.582;2022-08-01T10:10:34;100518.40;;;25.88
69435;BMP180;56625;54.322;18.582;2022-08-01T10:13:04;100522.40;;;26.00
69435;BMP180;56625;54.322;18.582;2022-08-01T10:15:38;100515.00;;;26.20
69435;BMP180;56625;54.322;18.582;2022-08-01T10:18:10;100512.60;;;26.40
69435;BMP180;56625;54.322;18.582;2022-08-01T10:20:54;100511.20;;;26.24
69435;BMP180;56625;54.322;18.582;2022-08-01T10:23:34;100514.00;;;25.94
69435;BMP180;56625;54.322;18.582;2022-08-01T10:26:10;100516.20;;;25.60
69435;BMP180;56625;54.322;18.582;2022-08-01T10:28:41;100511.40;;;25.40
69435;BMP180;56625;54.322;18.582;2022-08-01T10:31:12;100521.00;;;25.26
69435;BMP180;56625;54.322;18.582;2022-08-01T10:33:41;100526.80;;;25.10
69435;BMP180;56625;54.322;18.582;2022-08-01T10:36:21;100525.20;;;25.00
69435;BMP180;56625;54.322;18.582;2022-08-01T10:38:54;100522.80;;;24.90
69435;BMP180;56625;54.322;18.582;2022-08-01T10:41:24;100526.00;;;24.80
69435;BMP180;56625;54.322;18.582;2022-08-01T10:43:55;100527.40;;;24.60
69435;BMP180;56625;54.322;18.582;2022-08-01T10:46:24;100532.40;;;24.40
69435;BMP180;56625;54.322;18.582;2022-08-01T10:49:19;100530.60;;;24.20
69435;BMP180;56625;54.322;18.582;2022-08-01T10:51:50;100528.60;;;24.30
69435;BMP180;56625;54.322;18.582;2022-08-01T10:54:25;100534.00;;;24.20
69435;BMP180;56625;54.322;18.582;2022-08-01T10:56:54;100528.20;;;24.00
69435;BMP180;56625;54.322;18.582;2022-08-01T10:59:30;100522.60;;;24.00
69435;BMP180;56625;54.322;18.582;2022-08-01T11:02:32;100527.20;;;23.90
69435;BMP180;56625;54.322;18.582;2022-08-01T11:05:09;100524.80;;;24.00
69435;BMP180;56625;54.322;18.582;2022-08-01T11:07:52;100527.40;;;24.36
69435;BMP180;56625;54.322;18.582;2022-08-01T11:10:42;100525.80;;;24.62
69435;BMP180;56625;54.322;18.582;2022-08-01T11:13:11;100524.80;;;24.90
69435;BMP180;56625;54.322;18.582;2022-08-01T11:15:41;100523.40;;;25.12
69435;BMP180;56625;54.322;18.582;2022-08-01T11:21:00;100529.00;;;25.50
69435;BMP180;56625;54.322;18.582;2022-08-01T11:23:51;100524.80;;;25.78
69435;BMP180;56625;54.322;18.582;2022-08-01T11:26:21;100525.60;;;25.80
69435;BMP180;56625;54.322;18.582;2022-08-01T11:29:15;100521.00;;;25.68
69435;BMP180;56625;54.322;18.582;2022-08-01T11:31:49;100526.40;;;25.46
69435;BMP180;56625;54.322;18.582;2022-08-01T11:34:18;100527.60;;;25.22
69435;BMP180;56625;54.322;18.582;2022-08-01T11:36:46;100530.00;;;25.12
69435;BMP180;56625;54.322;18.582;2022-08-01T11:39:29;100534.00;;;25.16
69435;BMP180;56625;54.322;18.582;2022-08-01T11:42:18;100541.40;;;25.10
69435;BMP180;56625;54.322;18.582;2022-08-01T11:44:49;100539.40;;;25.10
69435;BMP180;56625;54.322;18.582;2022-08-01T11:47:17;100534.80;;;25.28
69435;BMP180;56625;54.322;18.582;2022-08-01T11:49:49;100540.80;;;25.40
69435;BMP180;56625;54.322;18.582;2022-08-01T11:52:27;100538.60;;;25.50
69435;BMP180;56625;54.322;18.582;2022-08-01T11:55:06;100541.80;;;25.60
69435;BMP180;56625;54.322;18.582;2022-08-01T11:57:37;100542.60;;;25.60
69435;BMP180;56625;54.322;18.582;2022-08-01T12:00:18;100539.00;;;25.60
69435;BMP180;56625;54.322;18.582;2022-08-01T12:02:56;100542.00;;;25.70
69435;BMP180;56625;54.322;18.582;2022-08-01T12:05:28;100537.20;;;25.80
69435;BMP180;56625;54.322;18.582;2022-08-01T12:07:58;100540.20;;;26.00
69435;BMP180;56625;54.322;18.582;2022-08-01T12:10:34;100540.40;;;25.80
69435;BMP180;56625;54.322;18.582;2022-08-01T12:13:16;100537.60;;;25.80
69435;BMP180;56625;54.322;18.582;2022-08-01T12:15:46;100540.00;;;25.90
69435;BMP180;56625;54.322;18.582;2022-08-01T12:18:19;100545.40;;;25.80
69435;BMP180;56625;54.322;18.582;2022-08-01T12:20:47;100544.00;;;25.80
69435;BMP180;56625;54.322;18.582;2022-08-01T12:23:23;100542.20;;;25.76
69435;BMP180;56625;54.322;18.582;2022-08-01T12:25:52;100544.40;;;25.80
69435;BMP180;56625;54.322;18.582;2022-08-01T12:28:21;100548.40;;;25.90
69435;BMP180;56625;54.322;18.582;2022-08-01T12:30:50;100546.80;;;26.10
69435;BMP180;56625;54.322;18.582;2022-08-01T12:33:20;100544.00;;;26.10
69435;BMP180;56625;54.322;18.582;2022-08-01T12:35:48;100537.20;;;26.10
69435;BMP180;56625;54.322;18.582;2022-08-01T12:38:21;100543.00;;;26.20
69435;BMP180;56625;54.322;18.582;2022-08-01T12:40:50;100542.60;;;26.00
69435;BMP180;56625;54.322;18.582;2022-08-01T12:43:23;100550.60;;;25.90
69435;BMP180;56625;54.322;18.582;2022-08-01T12:45:59;100549.40;;;25.80
69435;BMP180;56625;54.322;18.582;2022-08-01T12:48:30;100551.60;;;25.80
69435;BMP180;56625;54.322;18.582;2022-08-01T12:50:59;100551.40;;;25.60
69435;BMP180;56625;54.322;18.582;2022-08-01T12:53:35;100551.20;;;25.50
69435;BMP180;56625;54.322;18.582;2022-08-01T12:56:09;100555.60;;;25.60
69435;BMP180;56625;54.322;18.582;2022-08-01T12:58:38;100553.60;;;25.68
69435;BMP180;56625;54.322;18.582;2022-08-01T13:01:11;100555.80;;;25.70
69435;BMP180;56625;54.322;18.582;2022-08-01T13:03:41;100559.20;;;25.80
69435;BMP180;56625;54.322;18.582;2022-08-01T13:06:14;100568.80;;;25.60
69435;BMP180;56625;54.322;18.582;2022-08-01T13:08:45;100569.60;;;25.40
69435;BMP180;56625;54.322;18.582;2022-08-01T13:11:15;100566.40;;;25.38
69435;BMP180;56625;54.322;18.582;2022-08-01T13:13:49;100561.80;;;25.40
69435;BMP180;56625;54.322;18.582;2022-08-01T13:16:24;100565.40;;;25.50
69435;BMP180;56625;54.322;18.582;2022-08-01T13:19:13;100565.40;;;25.50
69435;BMP180;56625;54.322;18.582;2022-08-01T13:21:57;100566.80;;;25.40
69435;BMP180;56625;54.322;18.582;2022-08-01T13:24:28;100573.00;;;25.50
69435;BMP180;56625;54.322;18.582;2022-08-01T13:26:59;100573.00;;;25.60
69435;BMP180;56625;54.322;18.582;2022-08-01T13:29:37;100571.40;;;25.50
69435;BMP180;56625;54.322;18.582;2022-08-01T13:32:19;100570.60;;;25.40
69435;BMP180;56625;54.322;18.582;2022-08-01T13:35:05;100571.20;;;25.40
69435;BMP180;56625;54.322;18.582;2022-08-01T13:37:33;100571.60;;;25.50
69435;BMP180;56625;54.322;18.582;2022-08-01T13:40:04;100569.60;;;25.40
69435;BMP180;56625;54.322;18.582;2022-08-01T13:42:32;100573.60;;;25.40
69435;BMP180;56625;54.322;18.582;2022-08-01T13:45:01;100580.20;;;25.30
69435;BMP180;56625;54.322;18.582;2022-08-01T13:47:29;100584.40;;;24.98
69435;BMP180;56625;54.322;18.582;2022-08-01T13:50:00;100592.40;;;24.70
69435;BMP180;56625;54.322;18.582;2022-08-01T13:52:31;100593.40;;;24.50
69435;BMP180;56625;54.322;18.582;2022-08-01T13:55:00;100603.20;;;24.30
69435;BMP180;56625;54.322;18.582;2022-08-01T13:57:29;100602.40;;;24.10
69435;BMP180;56625;54.322;18.582;2022-08-01T14:00:07;100609.40;;;24.00
69435;BMP180;56625;54.322;18.582;2022-08-01T14:02:36;100611.40;;;23.80
69435;BMP180;56625;54.322;18.582;2022-08-01T14:05:04;100611.20;;;23.80
69435;BMP180;56625;54.322;18.582;2022-08-01T14:07:32;100611.00;;;23.60
69435;BMP180;56625;54.322;18.582;2022-08-01T14:10:00;100615.80;;;23.58
69435;BMP180;56625;54.322;18.582;2022-08-01T14:12:47;100613.00;;;23.50
69435;BMP180;56625;54.322;18.582;2022-08-01T14:15:16;100615.60;;;23.40
69435;BMP180;56625;54.322;18.582;2022-08-01T14:18:07;100618.60;;;23.50
69435;BMP180;56625;54.322;18.582;2022-08-01T14:20:38;100614.80;;;23.50
69435;BMP180;56625;54.322;18.582;2022-08-01T14:23:08;100622.40;;;23.58
69435;BMP180;56625;54.322;18.582;2022-08-01T14:25:37;100623.40;;;23.60